createdAt,value
2018-11-01T00:01:04.395Z,8.90
2018-11-01T00:03:35.569Z,8.80
2018-11-01T00:06:06.767Z,8.80
2018-11-01T00:08:37.899Z,8.80
2018-11-01T00:11:08.990Z,8.80
2018-11-01T00:13:40.165Z,8.70
2018-11-01T00:16:11.490Z,8.70
2018-11-01T00:18:42.642Z,8.70
2018-11-01T00:21:13.729Z,8.70
2018-11-01T00:23:44.942Z,8.70
2018-11-01T00:26:16.121Z,8.70
2018-11-01T00:28:47.228Z,8.70
2018-11-01T00:31:18.464Z,8.60
2018-11-01T00:33:49.694Z,8.50
2018-11-01T00:36:21.106Z,8.50
2018-11-01T00:38:52.372Z,8.50
2018-11-01T00:41:23.593Z,8.40
2018-11-01T00:43:54.952Z,8.40
2018-11-01T00:46:26.324Z,8.40
2018-11-01T00:48:57.645Z,8.40
2018-11-01T00:51:28.864Z,8.40
2018-11-01T00:54:00.358Z,8.40
2018-11-01T00:56:31.569Z,8.40
2018-11-01T00:59:02.971Z,8.40
2018-11-01T01:01:34.117Z,8.40
2018-11-01T01:04:05.286Z,8.40
2018-11-01T01:06:36.563Z,8.40
2018-11-01T01:09:11.079Z,8.40
2018-11-01T01:11:42.512Z,8.30
2018-11-01T01:14:13.701Z,8.40
2018-11-01T01:16:44.921Z,8.30
2018-11-01T01:19:16.122Z,8.40
2018-11-01T01:21:47.300Z,8.30
2018-11-01T01:24:18.433Z,8.40
2018-11-01T01:26:49.533Z,8.40
2018-11-01T01:29:20.814Z,8.40
2018-11-01T01:31:51.876Z,8.40
2018-11-01T01:34:23.198Z,8.40
2018-11-01T01:36:54.441Z,8.40
2018-11-01T01:39:25.678Z,8.40
2018-11-01T01:41:56.929Z,8.30
2018-11-01T01:44:28.048Z,8.30
2018-11-01T01:46:59.206Z,8.30
2018-11-01T01:49:30.363Z,8.30
2018-11-01T01:52:01.594Z,8.30
2018-11-01T01:54:34.308Z,8.30
2018-11-01T01:57:05.435Z,8.30
2018-11-01T01:59:36.805Z,8.30
2018-11-01T02:02:08.081Z,8.30
2018-11-01T02:04:39.338Z,8.30
2018-11-01T02:07:10.587Z,8.30
2018-11-01T02:09:41.835Z,8.30
2018-11-01T02:12:13.281Z,8.30
2018-11-01T02:14:44.663Z,8.30
2018-11-01T02:17:15.719Z,8.30
2018-11-01T02:19:46.946Z,8.30
2018-11-01T02:22:18.183Z,8.30
2018-11-01T02:24:49.484Z,8.30
2018-11-01T02:27:20.731Z,8.30
2018-11-01T02:29:51.965Z,8.30
2018-11-01T02:32:23.220Z,8.30
2018-11-01T02:34:54.595Z,8.30
2018-11-01T02:37:25.820Z,8.30
2018-11-01T02:39:57.044Z,8.30
2018-11-01T02:42:28.217Z,8.30
2018-11-01T02:44:59.415Z,8.30
2018-11-01T02:47:30.755Z,8.30
2018-11-01T02:50:01.976Z,8.30
2018-11-01T02:52:33.363Z,8.30
2018-11-01T02:55:05.016Z,8.30
2018-11-01T02:57:36.372Z,8.30
2018-11-01T03:00:09.592Z,8.30
2018-11-01T03:02:40.894Z,8.30
2018-11-01T03:05:12.674Z,8.30
2018-11-01T03:07:43.918Z,8.30
2018-11-01T03:10:15.784Z,8.20
2018-11-01T03:12:47.061Z,8.20
2018-11-01T03:15:18.260Z,8.10
2018-11-01T03:17:49.467Z,8.10
2018-11-01T03:20:20.586Z,8.10
2018-11-01T03:22:51.639Z,8.10
2018-11-01T03:25:22.829Z,8.10
2018-11-01T03:27:54.094Z,8.00
2018-11-01T03:30:25.471Z,8.00
2018-11-01T03:32:56.675Z,8.00
2018-11-01T03:35:27.891Z,8.00
2018-11-01T03:37:59.119Z,7.90
2018-11-01T03:40:32.221Z,7.90
2018-11-01T03:43:03.263Z,7.80
2018-11-01T03:45:34.603Z,7.70
2018-11-01T03:48:06.644Z,7.60
2018-11-01T03:50:37.738Z,7.60
2018-11-01T03:53:08.925Z,7.50
2018-11-01T03:55:40.237Z,7.50
2018-11-01T03:58:11.427Z,7.40
2018-11-01T04:00:42.631Z,7.40
2018-11-01T04:03:13.874Z,7.30
2018-11-01T04:05:45.206Z,7.30
2018-11-01T04:08:16.424Z,7.30
2018-11-01T04:10:47.676Z,7.20
2018-11-01T04:13:18.933Z,7.20
2018-11-01T04:15:50.208Z,7.20
2018-11-01T04:18:21.322Z,7.10
2018-11-01T04:20:52.526Z,7.00
2018-11-01T04:23:23.849Z,7.00
2018-11-01T04:25:55.066Z,6.90
2018-11-01T04:28:26.263Z,6.90
2018-11-01T04:30:57.273Z,6.90
2018-11-01T04:33:28.611Z,6.80
2018-11-01T04:35:59.788Z,6.80
2018-11-01T04:38:30.895Z,6.70
2018-11-01T04:41:02.036Z,6.70
2018-11-01T04:43:33.375Z,6.60
2018-11-01T04:46:04.486Z,6.60
2018-11-01T04:48:35.573Z,6.60
2018-11-01T04:51:06.757Z,6.60
2018-11-01T04:53:37.915Z,6.60
2018-11-01T04:56:09.078Z,6.60
2018-11-01T04:58:40.361Z,6.50
2018-11-01T05:01:11.542Z,6.50
2018-11-01T05:03:42.843Z,6.50
2018-11-01T05:06:13.962Z,6.50
2018-11-01T05:08:45.100Z,6.50
2018-11-01T05:11:16.332Z,6.50
2018-11-01T05:13:47.968Z,6.40
2018-11-01T05:16:19.345Z,6.40
2018-11-01T05:18:50.605Z,6.40
2018-11-01T05:21:21.827Z,6.50
2018-11-01T05:23:53.158Z,6.50
2018-11-01T05:26:24.358Z,6.40
2018-11-01T05:28:55.366Z,6.50
2018-11-01T05:31:26.718Z,6.40
2018-11-01T05:33:58.252Z,6.50
2018-11-01T05:36:29.389Z,6.40
2018-11-01T05:39:00.629Z,6.50
2018-11-01T05:41:31.839Z,6.40
2018-11-01T05:44:02.931Z,6.50
2018-11-01T05:46:34.828Z,6.40
2018-11-01T05:49:05.905Z,6.40
2018-11-01T05:51:37.128Z,6.30
2018-11-01T05:54:09.285Z,6.30
2018-11-01T05:56:40.364Z,6.20
2018-11-01T05:59:11.549Z,6.10
2018-11-01T06:01:53.785Z,6.20
2018-11-01T06:04:24.949Z,6.10
2018-11-01T06:06:56.196Z,6.10
2018-11-01T06:09:33.185Z,6.10
2018-11-01T06:12:04.351Z,6.10
2018-11-01T06:14:35.941Z,6.10
2018-11-01T06:17:07.208Z,6.00
2018-11-01T06:19:38.504Z,6.00
2018-11-01T06:22:09.720Z,6.00
2018-11-01T06:24:40.910Z,6.00
2018-11-01T06:27:12.121Z,6.00
2018-11-01T06:29:43.533Z,6.00
2018-11-01T06:32:14.735Z,6.00
2018-11-01T06:35:04.443Z,6.00
2018-11-01T06:37:35.555Z,6.00
2018-11-01T06:40:06.829Z,6.00
2018-11-01T06:42:37.989Z,6.00
2018-11-01T06:45:09.068Z,6.00
2018-11-01T06:47:40.320Z,6.00
2018-11-01T06:50:11.462Z,6.00
2018-11-01T06:52:42.686Z,6.00
2018-11-01T06:55:13.892Z,6.00
2018-11-01T06:57:45.182Z,5.90
2018-11-01T07:00:16.711Z,5.90
2018-11-01T07:02:47.761Z,5.90
2018-11-01T07:05:19.026Z,5.90
2018-11-01T07:07:50.024Z,5.90
2018-11-01T07:10:21.131Z,5.90
2018-11-01T07:12:52.271Z,5.90
2018-11-01T07:15:23.495Z,5.90
2018-11-01T07:17:54.673Z,5.90
2018-11-01T07:20:25.856Z,5.90
2018-11-01T07:22:57.009Z,5.90
2018-11-01T07:25:30.731Z,5.80
2018-11-01T07:28:01.802Z,5.80
2018-11-01T07:30:33.020Z,5.80
2018-11-01T07:33:04.235Z,5.90
2018-11-01T07:35:35.382Z,5.90
2018-11-01T07:38:06.820Z,5.90
2018-11-01T07:40:37.938Z,5.90
2018-11-01T07:43:11.356Z,5.90
2018-11-01T07:45:40.387Z,6.00
2018-11-01T07:48:11.524Z,6.00
2018-11-01T07:50:42.911Z,6.10
2018-11-01T07:53:14.043Z,6.10
2018-11-01T07:55:45.271Z,6.20
2018-11-01T07:58:19.739Z,6.20
2018-11-01T08:00:50.968Z,6.30
2018-11-01T08:03:22.253Z,6.40
2018-11-01T08:05:53.944Z,6.40
2018-11-01T08:08:25.177Z,6.40
2018-11-01T08:10:57.553Z,6.50
2018-11-01T08:13:29.303Z,6.60
2018-11-01T08:16:02.118Z,6.60
2018-11-01T08:18:39.073Z,6.70
2018-11-01T08:21:10.779Z,6.80
2018-11-01T08:23:42.334Z,6.80
2018-11-01T08:26:14.196Z,6.90
2018-11-01T08:28:45.360Z,6.90
2018-11-01T08:31:17.703Z,7.00
2018-11-01T08:33:49.384Z,7.10
2018-11-01T08:36:25.984Z,7.10
2018-11-01T08:38:57.624Z,7.20
2018-11-01T08:41:29.077Z,7.20
2018-11-01T08:44:00.485Z,7.30
2018-11-01T08:46:31.702Z,7.30
2018-11-01T08:49:03.081Z,7.30
2018-11-01T08:51:37.864Z,7.40
2018-11-01T08:54:17.188Z,7.50
2018-11-01T08:56:48.823Z,7.50
2018-11-01T08:59:20.786Z,7.50
2018-11-01T09:01:52.219Z,7.60
2018-11-01T09:04:23.575Z,7.70
2018-11-01T09:06:54.881Z,7.70
2018-11-01T09:09:26.050Z,7.80
2018-11-01T09:11:57.348Z,7.90
2018-11-01T09:14:28.658Z,8.00
2018-11-01T09:16:59.767Z,8.00
2018-11-01T09:19:30.954Z,8.10
2018-11-01T09:22:02.304Z,8.20
2018-11-01T09:24:33.669Z,8.20
2018-11-01T09:27:05.343Z,8.30
2018-11-01T09:29:36.711Z,8.30
2018-11-01T09:32:08.149Z,8.40
2018-11-01T09:34:39.247Z,8.50
2018-11-01T09:37:10.505Z,8.50
2018-11-01T09:39:41.907Z,8.50
2018-11-01T09:42:13.156Z,8.60
2018-11-01T09:44:44.304Z,8.60
2018-11-01T09:47:15.762Z,8.70
2018-11-01T09:49:46.500Z,8.80
2018-11-01T09:52:17.709Z,8.90
2018-11-01T09:54:48.955Z,8.90
2018-11-01T09:57:20.078Z,9.00
2018-11-01T09:59:51.230Z,9.00
2018-11-01T10:02:22.444Z,9.00
2018-11-01T10:04:53.656Z,9.10
2018-11-01T10:07:24.698Z,9.20
2018-11-01T10:09:56.105Z,9.20
2018-11-01T10:12:27.160Z,9.10
2018-11-01T10:14:58.593Z,9.20
2018-11-01T10:17:30.147Z,9.20
2018-11-01T10:20:01.093Z,9.30
2018-11-01T10:22:32.473Z,9.40
2018-11-01T10:25:03.728Z,9.50
2018-11-01T10:27:35.206Z,9.50
2018-11-01T10:30:08.142Z,9.60
2018-11-01T10:32:43.879Z,9.70
2018-11-01T10:35:12.830Z,9.70
2018-11-01T10:37:43.950Z,9.70
2018-11-01T10:40:16.693Z,9.70
2018-11-01T10:42:47.962Z,9.80
2018-11-01T10:45:19.295Z,9.80
2018-11-01T10:47:50.707Z,9.70
2018-11-01T10:50:22.113Z,9.70
2018-11-01T10:52:53.331Z,9.80
2018-11-01T10:55:24.402Z,9.90
2018-11-01T10:57:55.694Z,9.90
2018-11-01T11:00:44.133Z,9.90
2018-11-01T11:03:15.206Z,10.00
2018-11-01T11:05:46.447Z,10.10
2018-11-01T11:08:17.640Z,10.20
2018-11-01T11:10:48.788Z,10.20
2018-11-01T11:13:20.114Z,10.20
2018-11-01T11:15:51.257Z,10.20
2018-11-01T11:18:22.484Z,10.20
2018-11-01T11:20:53.859Z,10.20
2018-11-01T11:23:24.895Z,10.20
2018-11-01T11:25:56.171Z,10.20
2018-11-01T11:28:27.520Z,10.20
2018-11-01T11:30:58.793Z,10.20
2018-11-01T11:33:30.152Z,10.30
2018-11-01T11:36:01.516Z,10.30
2018-11-01T11:38:32.615Z,10.40
2018-11-01T11:41:03.992Z,10.40
2018-11-01T11:43:35.128Z,10.40
2018-11-01T11:46:06.599Z,10.40
2018-11-01T11:48:37.749Z,10.50
2018-11-01T11:51:09.113Z,10.50
2018-11-01T11:53:40.308Z,10.50
2018-11-01T11:56:11.660Z,10.60
2018-11-01T11:58:43.126Z,10.60
2018-11-01T12:01:14.451Z,10.70
2018-11-01T12:03:47.974Z,10.70
2018-11-01T12:06:19.542Z,10.80
2018-11-01T12:08:50.648Z,10.80
2018-11-01T12:11:21.742Z,10.80
2018-11-01T12:13:53.258Z,10.80
2018-11-01T12:16:24.573Z,10.90
2018-11-01T12:18:55.934Z,10.90
2018-11-01T12:21:27.243Z,10.80
2018-11-01T12:24:00.812Z,10.80
2018-11-01T12:26:35.317Z,10.80
2018-11-01T12:29:06.813Z,10.80
2018-11-01T12:31:38.165Z,10.80
2018-11-01T12:34:09.523Z,10.60
2018-11-01T12:36:40.824Z,10.70
2018-11-01T12:39:12.089Z,10.70
2018-11-01T12:41:43.411Z,10.60
2018-11-01T12:44:14.709Z,10.60
2018-11-01T12:46:46.040Z,10.50
2018-11-01T12:49:17.443Z,10.50
2018-11-01T12:51:48.869Z,10.50
2018-11-01T12:54:20.189Z,10.50
2018-11-01T12:56:51.482Z,10.50
2018-11-01T12:59:22.685Z,10.60
2018-11-01T13:01:54.222Z,10.60
2018-11-01T13:04:25.654Z,10.50
2018-11-01T13:06:57.050Z,10.60
2018-11-01T13:09:29.361Z,10.60
2018-11-01T13:12:03.522Z,10.60
2018-11-01T13:14:35.002Z,10.60
2018-11-01T13:17:09.075Z,10.60
2018-11-01T13:19:40.606Z,10.70
2018-11-01T13:22:12.002Z,10.60
2018-11-01T13:24:43.240Z,10.60
2018-11-01T13:27:14.318Z,10.70
2018-11-01T13:29:46.141Z,10.70
2018-11-01T13:32:17.393Z,10.70
2018-11-01T13:34:50.014Z,10.60
2018-11-01T13:37:21.248Z,10.60
2018-11-01T13:39:52.764Z,10.70
2018-11-01T13:42:23.980Z,10.70
2018-11-01T13:44:55.175Z,10.60
2018-11-01T13:47:26.577Z,10.60
2018-11-01T13:50:00.527Z,10.60
2018-11-01T13:52:34.260Z,10.60
2018-11-01T13:55:06.071Z,10.60
2018-11-01T13:57:37.370Z,10.70
2018-11-01T14:00:09.051Z,10.60
2018-11-01T14:02:41.188Z,10.60
2018-11-01T14:05:13.719Z,10.50
2018-11-01T14:07:45.238Z,10.60
2018-11-01T14:10:17.462Z,10.60
2018-11-01T14:12:48.764Z,10.50
2018-11-01T14:15:20.326Z,10.40
2018-11-01T14:17:51.128Z,10.30
2018-11-01T14:20:22.517Z,10.30
2018-11-01T14:22:53.772Z,10.30
2018-11-01T14:25:25.172Z,10.30
2018-11-01T14:27:56.375Z,10.20
2018-11-01T14:30:27.642Z,10.20
2018-11-01T14:32:58.793Z,10.10
2018-11-01T14:35:31.229Z,10.10
2018-11-01T14:38:02.693Z,10.10
2018-11-01T14:40:33.905Z,10.00
2018-11-01T14:43:05.260Z,10.00
2018-11-01T14:45:36.569Z,10.00
2018-11-01T14:48:07.766Z,10.00
2018-11-01T14:50:39.069Z,10.00
2018-11-01T14:53:10.878Z,10.00
2018-11-01T14:55:42.964Z,9.90
2018-11-01T14:58:14.426Z,9.90
2018-11-01T15:00:44.347Z,9.90
2018-11-01T15:03:15.538Z,9.90
2018-11-01T15:05:46.677Z,9.90
2018-11-01T15:08:17.963Z,9.90
2018-11-01T15:10:49.158Z,9.90
2018-11-01T15:13:20.588Z,9.90
2018-11-01T15:15:51.746Z,9.80
2018-11-01T15:18:23.019Z,9.80
2018-11-01T15:20:54.257Z,9.80
2018-11-01T15:23:25.552Z,9.80
2018-11-01T15:25:56.851Z,9.70
2018-11-01T15:28:28.116Z,9.80
2018-11-01T15:31:04.746Z,9.80
2018-11-01T15:33:40.969Z,9.80
2018-11-01T15:36:12.009Z,9.80
2018-11-01T15:38:43.288Z,9.80
2018-11-01T15:41:14.678Z,9.80
2018-11-01T15:43:45.889Z,9.80
2018-11-01T15:46:17.179Z,9.70
2018-11-01T15:48:48.546Z,9.80
2018-11-01T15:51:19.816Z,9.70
2018-11-01T15:53:51.236Z,9.70
2018-11-01T15:56:22.502Z,9.70
2018-11-01T15:58:53.796Z,9.70
2018-11-01T16:01:24.992Z,9.70
2018-11-01T16:03:56.426Z,9.70
2018-11-01T16:06:27.499Z,9.60
2018-11-01T16:08:58.772Z,9.60
2018-11-01T16:11:30.082Z,9.60
2018-11-01T16:14:01.351Z,9.60
2018-11-01T16:16:32.599Z,9.60
2018-11-01T16:19:03.902Z,9.60
2018-11-01T16:21:35.149Z,9.50
2018-11-01T16:24:06.716Z,9.60
2018-11-01T16:26:37.903Z,9.50
2018-11-01T16:29:09.446Z,9.50
2018-11-01T16:31:41.671Z,9.50
2018-11-01T16:34:13.006Z,9.50
2018-11-01T16:36:44.476Z,9.50
2018-11-01T16:39:15.793Z,9.40
2018-11-01T16:41:47.107Z,9.40
2018-11-01T16:44:18.366Z,9.50
2018-11-01T16:46:51.947Z,9.40
2018-11-01T16:49:23.259Z,9.40
2018-11-01T16:51:54.593Z,9.40
2018-11-01T16:54:25.843Z,9.40
2018-11-01T16:56:57.232Z,9.40
2018-11-01T16:59:28.810Z,9.40
2018-11-01T17:02:00.202Z,9.40
2018-11-01T17:04:34.568Z,9.40
2018-11-01T17:07:05.952Z,9.40
2018-11-01T17:09:39.371Z,9.40
2018-11-01T17:12:10.504Z,9.40
2018-11-01T17:14:42.124Z,9.40
2018-11-01T17:17:13.569Z,9.50
2018-11-01T17:19:45.068Z,9.50
2018-11-01T17:22:19.017Z,9.50
2018-11-01T17:24:50.412Z,9.50
2018-11-01T17:27:21.688Z,9.40
2018-11-01T17:29:53.020Z,9.40
2018-11-01T17:32:24.414Z,9.40
2018-11-01T17:34:55.711Z,9.40
2018-11-01T17:37:27.050Z,9.40
2018-11-01T17:40:00.679Z,9.40
2018-11-01T17:42:31.986Z,9.40
2018-11-01T17:45:03.271Z,9.40
2018-11-01T17:47:34.523Z,9.40
2018-11-01T17:50:07.187Z,9.40
2018-11-01T17:52:38.559Z,9.40
2018-11-01T17:55:09.903Z,9.40
2018-11-01T17:57:41.356Z,9.40
2018-11-01T18:00:15.147Z,9.40
2018-11-01T18:02:50.301Z,9.40
2018-11-01T18:05:21.677Z,9.40
2018-11-01T18:07:52.914Z,9.30
2018-11-01T18:10:23.940Z,9.30
2018-11-01T18:12:55.189Z,9.30
2018-11-01T18:15:26.637Z,9.30
2018-11-01T18:17:57.991Z,9.30
2018-11-01T18:20:29.299Z,9.30
2018-11-01T18:23:00.606Z,9.30
2018-11-01T18:25:31.742Z,9.30
2018-11-01T18:28:03.834Z,9.30
2018-11-01T18:30:34.972Z,9.30
2018-11-01T18:33:06.669Z,9.30
2018-11-01T18:35:37.684Z,9.30
2018-11-01T18:38:08.908Z,9.20
2018-11-01T18:40:40.060Z,9.20
2018-11-01T18:43:11.371Z,9.20
2018-11-01T18:45:42.753Z,9.20
2018-11-01T18:48:14.088Z,9.20
2018-11-01T18:50:45.531Z,9.20
2018-11-01T18:53:17.773Z,9.20
2018-11-01T18:55:49.077Z,9.20
2018-11-01T18:58:20.184Z,9.20
2018-11-01T19:00:51.433Z,9.20
2018-11-01T19:03:33.057Z,9.20
2018-11-01T19:06:04.898Z,9.30
2018-11-01T19:08:36.167Z,9.30
2018-11-01T19:11:07.639Z,9.30
2018-11-01T19:13:38.969Z,9.30
2018-11-01T19:16:10.202Z,9.30
2018-11-01T19:18:41.697Z,9.30
2018-11-01T19:21:12.898Z,9.30
2018-11-01T19:23:44.033Z,9.30
2018-11-01T19:26:15.380Z,9.30
2018-11-01T19:28:46.678Z,9.30
2018-11-01T19:31:18.004Z,9.30
2018-11-01T19:33:49.423Z,9.30
2018-11-01T19:36:20.409Z,9.30
2018-11-01T19:38:51.529Z,9.30
2018-11-01T19:41:22.747Z,9.30
2018-11-01T19:43:54.052Z,9.30
2018-11-01T19:46:25.287Z,9.30
2018-11-01T19:48:56.605Z,9.20
2018-11-01T19:51:28.378Z,9.20
2018-11-01T19:53:59.751Z,9.20
2018-11-01T19:56:31.019Z,9.20
2018-11-01T19:59:02.459Z,9.10
2018-11-01T20:01:33.935Z,9.10
2018-11-01T20:04:05.210Z,9.10
2018-11-01T20:06:36.460Z,9.10
2018-11-01T20:09:09.057Z,9.20
2018-11-01T20:11:40.284Z,9.20
2018-11-01T20:14:11.673Z,9.20
2018-11-01T20:16:43.039Z,9.30
2018-11-01T20:19:14.403Z,9.30
2018-11-01T20:21:45.746Z,9.30
2018-11-01T20:24:16.891Z,9.30
2018-11-01T20:26:48.405Z,9.30
2018-11-01T20:29:19.756Z,9.30
2018-11-01T20:31:51.240Z,9.30
2018-11-01T20:34:22.375Z,9.30
2018-11-01T20:36:53.710Z,9.30
2018-11-01T20:39:24.985Z,9.30
2018-11-01T20:41:58.064Z,9.30
2018-11-01T20:44:29.241Z,9.30
2018-11-01T20:47:00.580Z,9.30
2018-11-01T20:49:32.134Z,9.30
2018-11-01T20:52:03.496Z,9.30
2018-11-01T20:54:34.984Z,9.30
2018-11-01T20:57:06.337Z,9.40
2018-11-01T20:59:38.559Z,9.40
2018-11-01T21:02:13.995Z,9.40
2018-11-01T21:04:48.039Z,9.40
2018-11-01T21:07:19.341Z,9.40
2018-11-01T21:09:50.688Z,9.40
2018-11-01T21:12:22.007Z,9.50
2018-11-01T21:14:53.268Z,9.50
2018-11-01T21:17:24.604Z,9.50
2018-11-01T21:19:55.923Z,9.50
2018-11-01T21:22:27.207Z,9.50
2018-11-01T21:24:58.589Z,9.50
2018-11-01T21:27:34.871Z,9.40
2018-11-01T21:30:03.679Z,9.40
2018-11-01T21:32:35.083Z,9.40
2018-11-01T21:35:06.722Z,9.40
2018-11-01T21:37:40.797Z,9.40
2018-11-01T21:40:12.598Z,9.40
2018-11-01T21:42:43.866Z,9.50
2018-11-01T21:45:15.124Z,9.50
2018-11-01T21:47:46.395Z,9.50
2018-11-01T21:50:17.550Z,9.50
2018-11-01T21:52:49.003Z,9.50
2018-11-01T21:55:20.366Z,9.50
2018-11-01T21:57:51.630Z,9.50
2018-11-01T22:00:22.732Z,9.50
2018-11-01T22:02:53.822Z,9.50
2018-11-01T22:05:25.006Z,9.50
2018-11-01T22:07:56.080Z,9.50
2018-11-01T22:10:27.339Z,9.60
2018-11-01T22:12:58.741Z,9.60
2018-11-01T22:15:30.060Z,9.60
2018-11-01T22:18:01.152Z,9.60
2018-11-01T22:20:32.443Z,9.60
2018-11-01T22:23:03.798Z,9.60
2018-11-01T22:25:35.022Z,9.70
2018-11-01T22:28:06.881Z,9.70
2018-11-01T22:30:38.114Z,9.70
2018-11-01T22:33:09.226Z,9.80
2018-11-01T22:35:40.368Z,9.80
2018-11-01T22:38:11.553Z,9.90
2018-11-01T22:40:42.890Z,10.00
2018-11-01T22:43:14.169Z,10.10
2018-11-01T22:45:45.463Z,10.10
2018-11-01T22:48:16.625Z,10.10
2018-11-01T22:50:47.892Z,10.10
2018-11-01T22:53:19.059Z,10.20
2018-11-01T22:55:50.057Z,10.20
2018-11-01T22:58:21.344Z,10.30
2018-11-01T23:00:52.638Z,10.30
2018-11-01T23:03:23.938Z,10.30
2018-11-01T23:05:54.976Z,10.30
2018-11-01T23:08:26.342Z,10.30
2018-11-01T23:10:57.534Z,10.40
2018-11-01T23:13:28.801Z,10.40
2018-11-01T23:16:00.048Z,10.50
2018-11-01T23:18:31.365Z,10.40
2018-11-01T23:21:02.505Z,10.40
2018-11-01T23:23:33.831Z,10.40
2018-11-01T23:26:05.125Z,10.40
2018-11-01T23:28:36.321Z,10.50
2018-11-01T23:31:07.485Z,10.50
2018-11-01T23:33:38.701Z,10.60
2018-11-01T23:36:08.570Z,10.60
2018-11-01T23:38:56.726Z,10.60
2018-11-01T23:41:45.574Z,10.60
2018-11-01T23:44:34.390Z,10.60
2018-11-01T23:47:23.004Z,10.70
2018-11-01T23:50:11.431Z,10.70
2018-11-01T23:52:44.539Z,10.60
2018-11-01T23:55:15.821Z,10.60
2018-11-01T23:57:47.042Z,10.60
